sensor_id;sensor_type;location;lat;lon;timestamp;temperature;humidity
22002;DHT22;11165;51.278;12.398;2022-09-13T00:01:31;14.90;99.90
22002;DHT22;11165;51.278;12.398;2022-09-13T00:03:56;14.90;99.90
22002;DHT22;11165;51.278;12.398;2022-09-13T00:06:22;14.90;99.90
22002;DHT22;11165;51.278;12.398;2022-09-13T00:08:48;14.90;99.90
22002;DHT22;11165;51.278;12.398;2022-09-13T00:11:16;14.80;99.90
22002;DHT22;11165;51.278;12.398;2022-09-13T00:13:42;14.70;99.90
22002;DHT22;11165;51.278;12.398;2022-09-13T00:16:13;14.70;99.90
22002;DHT22;11165;51.278;12.398;2022-09-13T00:18:39;14.70;99.90
22002;DHT22;11165;51.278;12.398;2022-09-13T00:21:08;14.70;99.90
22002;DHT22;11165;51.278;12.398;2022-09-13T00:23:35;14.70;99.90
22002;DHT22;11165;51.278;12.398;2022-09-13T00:26:09;14.70;99.90
22002;DHT22;11165;51.278;12.398;2022-09-13T00:28:35;14.70;99.90
22002;DHT22;11165;51.278;12.398;2022-09-13T00:31:03;14.70;99.90
22002;DHT22;11165;51.278;12.398;2022-09-13T00:33:29;14.70;99.90
22002;DHT22;11165;51.278;12.398;2022-09-13T00:35:54;14.70;99.90
22002;DHT22;11165;51.278;12.398;2022-09-13T00:38:20;14.70;99.90
22002;DHT22;11165;51.278;12.398;2022-09-13T00:40:46;14.70;99.90
22002;DHT22;11165;51.278;12.398;2022-09-13T00:43:16;14.70;99.90
22002;DHT22;11165;51.278;12.398;2022-09-13T00:45:43;14.60;99.90
22002;DHT22;11165;51.278;12.398;2022-09-13T00:48:19;14.70;99.90
22002;DHT22;11165;51.278;12.398;2022-09-13T00:50:52;14.70;99.90
22002;DHT22;11165;51.278;12.398;2022-09-13T00:53:32;14.70;99.90
22002;DHT22;11165;51.278;12.398;2022-09-13T00:56:34;14.60;99.90
22002;DHT22;11165;51.278;12.398;2022-09-13T00:59:06;14.50;99.90
22002;DHT22;11165;51.278;12.398;2022-09-13T01:01:36;14.50;99.90
22002;DHT22;11165;51.278;12.398;2022-09-13T01:04:03;14.50;99.90
22002;DHT22;11165;51.278;12.398;2022-09-13T01:06:31;14.50;99.90
22002;DHT22;11165;51.278;12.398;2022-09-13T01:08:59;14.50;99.90
22002;DHT22;11165;51.278;12.398;2022-09-13T01:13:57;14.40;99.90
22002;DHT22;11165;51.278;12.398;2022-09-13T01:16:22;14.40;99.90
22002;DHT22;11165;51.278;12.398;2022-09-13T01:18:48;14.40;99.90
22002;DHT22;11165;51.278;12.398;2022-09-13T01:24:27;14.40;99.90
22002;DHT22;11165;51.278;12.398;2022-09-13T01:46:45;14.20;99.90
22002;DHT22;11165;51.278;12.398;2022-09-13T01:49:23;14.10;99.90
22002;DHT22;11165;51.278;12.398;2022-09-13T01:52:09;14.10;99.90
22002;DHT22;11165;51.278;12.398;2022-09-13T01:54:49;14.10;99.90
22002;DHT22;11165;51.278;12.398;2022-09-13T01:57:35;14.10;99.90
22002;DHT22;11165;51.278;12.398;2022-09-13T02:00:13;14.10;99.90
22002;DHT22;11165;51.278;12.398;2022-09-13T02:02:46;14.10;99.90
22002;DHT22;11165;51.278;12.398;2022-09-13T02:05:30;14.00;99.90
22002;DHT22;11165;51.278;12.398;2022-09-13T02:08:05;14.00;99.90
22002;DHT22;11165;51.278;12.398;2022-09-13T02:10:36;14.00;99.90
22002;DHT22;11165;51.278;12.398;2022-09-13T02:13:05;14.00;99.90
22002;DHT22;11165;51.278;12.398;2022-09-13T02:15:39;14.00;99.90
22002;DHT22;11165;51.278;12.398;2022-09-13T02:20:59;14.10;99.90
22002;DHT22;11165;51.278;12.398;2022-09-13T02:23:33;14.00;99.90
22002;DHT22;11165;51.278;12.398;2022-09-13T02:25:59;14.10;99.90
22002;DHT22;11165;51.278;12.398;2022-09-13T02:28:33;14.00;99.90
22002;DHT22;11165;51.278;12.398;2022-09-13T02:31:00;14.00;99.90
22002;DHT22;11165;51.278;12.398;2022-09-13T02:33:34;14.00;99.90
22002;DHT22;11165;51.278;12.398;2022-09-13T02:36:17;14.00;99.90
22002;DHT22;11165;51.278;12.398;2022-09-13T02:38:51;14.10;99.90
22002;DHT22;11165;51.278;12.398;2022-09-13T02:41:35;14.10;99.90
22002;DHT22;11165;51.278;12.398;2022-09-13T02:44:11;14.00;99.90
22002;DHT22;11165;51.278;12.398;2022-09-13T02:46:44;14.00;99.90
22002;DHT22;11165;51.278;12.398;2022-09-13T02:49:30;14.10;99.90
22002;DHT22;11165;51.278;12.398;2022-09-13T02:57:30;14.00;99.90
22002;DHT22;11165;51.278;12.398;2022-09-13T02:59:58;14.10;99.90
22002;DHT22;11165;51.278;12.398;2022-09-13T03:02:27;14.10;99.90
22002;DHT22;11165;51.278;12.398;2022-09-13T03:04:55;14.10;99.90
22002;DHT22;11165;51.278;12.398;2022-09-13T03:07:21;14.10;99.90
22002;DHT22;11165;51.278;12.398;2022-09-13T03:10:13;14.10;99.90
22002;DHT22;11165;51.278;12.398;2022-09-13T03:12:45;14.10;99.90
22002;DHT22;11165;51.278;12.398;2022-09-13T03:18:36;14.10;99.90
22002;DHT22;11165;51.278;12.398;2022-09-13T03:27:02;13.90;99.90
22002;DHT22;11165;51.278;12.398;2022-09-13T03:29:33;13.90;99.90
22002;DHT22;11165;51.278;12.398;2022-09-13T03:36:59;14.00;99.90
22002;DHT22;11165;51.278;12.398;2022-09-13T03:39:32;13.90;99.90
22002;DHT22;11165;51.278;12.398;2022-09-13T03:42:03;13.90;99.90
22002;DHT22;11165;51.278;12.398;2022-09-13T03:44:33;13.90;99.90
22002;DHT22;11165;51.278;12.398;2022-09-13T03:47:02;13.90;99.90
22002;DHT22;11165;51.278;12.398;2022-09-13T03:49:29;13.80;99.90
22002;DHT22;11165;51.278;12.398;2022-09-13T03:51:55;14.00;99.90
22002;DHT22;11165;51.278;12.398;2022-09-13T03:54:26;14.10;99.90
22002;DHT22;11165;51.278;12.398;2022-09-13T03:59:42;14.10;99.90
22002;DHT22;11165;51.278;12.398;2022-09-13T04:02:10;14.10;99.90
22002;DHT22;11165;51.278;12.398;2022-09-13T04:04:40;14.00;99.90
22002;DHT22;11165;51.278;12.398;2022-09-13T04:07:06;14.10;99.90
22002;DHT22;11165;51.278;12.398;2022-09-13T04:09:32;14.10;99.90
22002;DHT22;11165;51.278;12.398;2022-09-13T04:11:58;14.20;99.90
22002;DHT22;11165;51.278;12.398;2022-09-13T04:14:23;14.30;99.90
22002;DHT22;11165;51.278;12.398;2022-09-13T04:16:55;14.30;99.90
22002;DHT22;11165;51.278;12.398;2022-09-13T04:19:22;14.20;99.90
22002;DHT22;11165;51.278;12.398;2022-09-13T04:21:49;14.20;99.90
22002;DHT22;11165;51.278;12.398;2022-09-13T04:24:15;14.20;99.90
22002;DHT22;11165;51.278;12.398;2022-09-13T04:26:41;14.20;99.90
22002;DHT22;11165;51.278;12.398;2022-09-13T04:29:07;14.10;99.90
22002;DHT22;11165;51.278;12.398;2022-09-13T04:31:32;14.10;99.90
22002;DHT22;11165;51.278;12.398;2022-09-13T04:33:58;14.00;99.90
22002;DHT22;11165;51.278;12.398;2022-09-13T04:36:25;14.00;99.90
22002;DHT22;11165;51.278;12.398;2022-09-13T04:38:50;13.90;99.90
22002;DHT22;11165;51.278;12.398;2022-09-13T04:41:16;13.90;99.90
22002;DHT22;11165;51.278;12.398;2022-09-13T04:43:42;14.00;99.90
22002;DHT22;11165;51.278;12.398;2022-09-13T04:46:07;14.10;99.90
22002;DHT22;11165;51.278;12.398;2022-09-13T04:48:33;14.00;99.90
22002;DHT22;11165;51.278;12.398;2022-09-13T04:51:02;13.90;99.90
22002;DHT22;11165;51.278;12.398;2022-09-13T04:53:29;13.90;99.90
22002;DHT22;11165;51.278;12.398;2022-09-13T04:55:59;13.80;99.90
22002;DHT22;11165;51.278;12.398;2022-09-13T04:58:25;13.80;99.90
22002;DHT22;11165;51.278;12.398;2022-09-13T05:00:51;13.80;99.90
22002;DHT22;11165;51.278;12.398;2022-09-13T05:03:21;13.80;99.90
22002;DHT22;11165;51.278;12.398;2022-09-13T05:05:47;14.00;99.90
22002;DHT22;11165;51.278;12.398;2022-09-13T05:08:12;14.10;99.90
22002;DHT22;11165;51.278;12.398;2022-09-13T05:10:38;14.20;99.90
22002;DHT22;11165;51.278;12.398;2022-09-13T05:13:04;14.20;99.90
22002;DHT22;11165;51.278;12.398;2022-09-13T05:15:29;14.30;99.90
22002;DHT22;11165;51.278;12.398;2022-09-13T05:17:55;14.40;99.90
22002;DHT22;11165;51.278;12.398;2022-09-13T05:20:20;14.50;99.90
22002;DHT22;11165;51.278;12.398;2022-09-13T05:22:46;14.50;99.90
22002;DHT22;11165;51.278;12.398;2022-09-13T05:25:11;14.50;99.90
22002;DHT22;11165;51.278;12.398;2022-09-13T05:27:38;14.50;99.90
22002;DHT22;11165;51.278;12.398;2022-09-13T05:30:04;14.60;99.90
22002;DHT22;11165;51.278;12.398;2022-09-13T05:32:31;14.60;99.90
22002;DHT22;11165;51.278;12.398;2022-09-13T05:34:56;14.60;99.90
22002;DHT22;11165;51.278;12.398;2022-09-13T05:37:22;14.60;99.90
22002;DHT22;11165;51.278;12.398;2022-09-13T05:39:47;14.60;99.90
22002;DHT22;11165;51.278;12.398;2022-09-13T05:42:13;14.60;99.90
22002;DHT22;11165;51.278;12.398;2022-09-13T05:44:38;14.70;99.90
22002;DHT22;11165;51.278;12.398;2022-09-13T05:47:04;14.70;99.90
22002;DHT22;11165;51.278;12.398;2022-09-13T05:49:30;14.80;99.90
22002;DHT22;11165;51.278;12.398;2022-09-13T05:51:55;14.90;99.90
22002;DHT22;11165;51.278;12.398;2022-09-13T05:54:21;15.00;99.90
22002;DHT22;11165;51.278;12.398;2022-09-13T05:56:46;15.10;99.90
22002;DHT22;11165;51.278;12.398;2022-09-13T05:59:12;15.30;99.90
22002;DHT22;11165;51.278;12.398;2022-09-13T06:01:39;15.50;99.90
22002;DHT22;11165;51.278;12.398;2022-09-13T06:04:04;15.60;99.90
22002;DHT22;11165;51.278;12.398;2022-09-13T06:06:30;15.70;99.90
22002;DHT22;11165;51.278;12.398;2022-09-13T06:08:56;15.70;99.90
22002;DHT22;11165;51.278;12.398;2022-09-13T06:11:23;15.70;99.90
22002;DHT22;11165;51.278;12.398;2022-09-13T06:13:49;15.80;99.90
22002;DHT22;11165;51.278;12.398;2022-09-13T06:16:15;15.90;99.90
22002;DHT22;11165;51.278;12.398;2022-09-13T06:18:42;16.00;99.90
22002;DHT22;11165;51.278;12.398;2022-09-13T06:21:16;16.10;99.90
22002;DHT22;11165;51.278;12.398;2022-09-13T06:23:43;16.10;99.90
22002;DHT22;11165;51.278;12.398;2022-09-13T06:26:12;16.20;99.90
22002;DHT22;11165;51.278;12.398;2022-09-13T06:28:38;16.20;99.90
22002;DHT22;11165;51.278;12.398;2022-09-13T06:31:05;16.30;99.90
22002;DHT22;11165;51.278;12.398;2022-09-13T06:33:32;16.30;99.90
22002;DHT22;11165;51.278;12.398;2022-09-13T06:36:08;16.20;99.90
22002;DHT22;11165;51.278;12.398;2022-09-13T06:38:34;16.20;99.90
22002;DHT22;11165;51.278;12.398;2022-09-13T06:41:05;16.20;99.90
22002;DHT22;11165;51.278;12.398;2022-09-13T06:43:32;16.20;99.90
22002;DHT22;11165;51.278;12.398;2022-09-13T06:46:11;16.00;99.90
22002;DHT22;11165;51.278;12.398;2022-09-13T06:48:38;15.90;99.90
22002;DHT22;11165;51.278;12.398;2022-09-13T06:51:09;15.80;99.90
22002;DHT22;11165;51.278;12.398;2022-09-13T06:53:37;15.70;99.90
22002;DHT22;11165;51.278;12.398;2022-09-13T06:56:10;15.70;99.90
22002;DHT22;11165;51.278;12.398;2022-09-13T06:58:38;15.70;99.90
22002;DHT22;11165;51.278;12.398;2022-09-13T07:01:18;15.70;99.90
22002;DHT22;11165;51.278;12.398;2022-09-13T07:03:46;15.70;99.90
22002;DHT22;11165;51.278;12.398;2022-09-13T07:06:15;15.70;99.90
22002;DHT22;11165;51.278;12.398;2022-09-13T07:08:42;15.80;99.90
22002;DHT22;11165;51.278;12.398;2022-09-13T07:11:09;15.80;99.90
22002;DHT22;11165;51.278;12.398;2022-09-13T07:13:35;15.80;99.90
22002;DHT22;11165;51.278;12.398;2022-09-13T07:16:05;15.80;99.90
22002;DHT22;11165;51.278;12.398;2022-09-13T07:18:31;15.80;99.90
22002;DHT22;11165;51.278;12.398;2022-09-13T07:21:05;15.80;99.90
22002;DHT22;11165;51.278;12.398;2022-09-13T07:23:35;15.80;99.90
22002;DHT22;11165;51.278;12.398;2022-09-13T07:26:01;15.90;99.90
22002;DHT22;11165;51.278;12.398;2022-09-13T07:28:32;15.90;99.90
22002;DHT22;11165;51.278;12.398;2022-09-13T07:31:22;15.90;99.90
22002;DHT22;11165;51.278;12.398;2022-09-13T07:33:56;16.00;99.90
22002;DHT22;11165;51.278;12.398;2022-09-13T07:36:22;16.00;99.90
22002;DHT22;11165;51.278;12.398;2022-09-13T07:38:48;16.00;99.90
22002;DHT22;11165;51.278;12.398;2022-09-13T07:41:16;16.00;99.90
22002;DHT22;11165;51.278;12.398;2022-09-13T07:43:42;16.10;99.90
22002;DHT22;11165;51.278;12.398;2022-09-13T07:46:10;16.20;99.90
22002;DHT22;11165;51.278;12.398;2022-09-13T07:48:38;16.30;99.90
22002;DHT22;11165;51.278;12.398;2022-09-13T07:51:10;16.50;99.90
22002;DHT22;11165;51.278;12.398;2022-09-13T07:53:37;16.80;99.90
22002;DHT22;11165;51.278;12.398;2022-09-13T07:58:34;16.90;99.90
22002;DHT22;11165;51.278;12.398;2022-09-13T08:01:18;16.90;99.90
22002;DHT22;11165;51.278;12.398;2022-09-13T08:03:50;16.90;99.90
22002;DHT22;11165;51.278;12.398;2022-09-13T08:06:16;16.90;99.90
22002;DHT22;11165;51.278;12.398;2022-09-13T08:08:41;17.00;99.90
22002;DHT22;11165;51.278;12.398;2022-09-13T08:11:07;17.00;99.90
22002;DHT22;11165;51.278;12.398;2022-09-13T08:13:33;17.10;99.90
22002;DHT22;11165;51.278;12.398;2022-09-13T08:16:03;17.20;99.90
22002;DHT22;11165;51.278;12.398;2022-09-13T08:18:28;17.20;99.90
22002;DHT22;11165;51.278;12.398;2022-09-13T08:20:58;17.30;99.90
22002;DHT22;11165;51.278;12.398;2022-09-13T08:23:24;17.30;99.90
22002;DHT22;11165;51.278;12.398;2022-09-13T08:25:50;17.30;99.90
22002;DHT22;11165;51.278;12.398;2022-09-13T08:28:18;17.30;99.90
22002;DHT22;11165;51.278;12.398;2022-09-13T08:30:46;17.40;99.90
22002;DHT22;11165;51.278;12.398;2022-09-13T08:33:13;17.50;99.90
22002;DHT22;11165;51.278;12.398;2022-09-13T08:35:39;17.50;99.90
22002;DHT22;11165;51.278;12.398;2022-09-13T08:38:05;17.70;99.90
22002;DHT22;11165;51.278;12.398;2022-09-13T08:40:37;17.90;99.90
22002;DHT22;11165;51.278;12.398;2022-09-13T08:43:27;18.00;99.90
22002;DHT22;11165;51.278;12.398;2022-09-13T08:46:09;18.00;99.90
22002;DHT22;11165;51.278;12.398;2022-09-13T08:48:40;18.00;99.90
22002;DHT22;11165;51.278;12.398;2022-09-13T08:53:49;18.20;99.90
22002;DHT22;11165;51.278;12.398;2022-09-13T08:56:22;18.20;99.90
22002;DHT22;11165;51.278;12.398;2022-09-13T08:59:13;18.10;99.90
22002;DHT22;11165;51.278;12.398;2022-09-13T09:07:02;18.40;99.90
22002;DHT22;11165;51.278;12.398;2022-09-13T09:09:31;18.50;99.90
22002;DHT22;11165;51.278;12.398;2022-09-13T09:12:21;18.60;99.90
22002;DHT22;11165;51.278;12.398;2022-09-13T09:20:36;18.80;99.90
22002;DHT22;11165;51.278;12.398;2022-09-13T09:25:37;19.00;99.90
22002;DHT22;11165;51.278;12.398;2022-09-13T09:28:12;19.10;99.90
22002;DHT22;11165;51.278;12.398;2022-09-13T09:30:58;19.10;99.90
22002;DHT22;11165;51.278;12.398;2022-09-13T09:36:41;19.30;99.90
22002;DHT22;11165;51.278;12.398;2022-09-13T09:39:13;19.40;99.90
22002;DHT22;11165;51.278;12.398;2022-09-13T09:41:41;19.40;99.90
22002;DHT22;11165;51.278;12.398;2022-09-13T09:46:42;19.80;99.90
22002;DHT22;11165;51.278;12.398;2022-09-13T09:49:34;19.90;99.90
22002;DHT22;11165;51.278;12.398;2022-09-13T09:52:25;20.30;99.90
22002;DHT22;11165;51.278;12.398;2022-09-13T09:54:53;20.50;99.90
22002;DHT22;11165;51.278;12.398;2022-09-13T09:57:48;20.60;99.90
22002;DHT22;11165;51.278;12.398;2022-09-13T10:00:14;20.50;99.90
22002;DHT22;11165;51.278;12.398;2022-09-13T10:02:43;20.50;99.90
22002;DHT22;11165;51.278;12.398;2022-09-13T10:05:09;20.60;99.90
22002;DHT22;11165;51.278;12.398;2022-09-13T10:07:37;20.70;99.90
22002;DHT22;11165;51.278;12.398;2022-09-13T10:10:08;20.60;99.90
22002;DHT22;11165;51.278;12.398;2022-09-13T10:12:49;20.60;99.90
22002;DHT22;11165;51.278;12.398;2022-09-13T10:15:19;20.60;99.90
22002;DHT22;11165;51.278;12.398;2022-09-13T10:20:25;20.90;99.90
22002;DHT22;11165;51.278;12.398;2022-09-13T10:25:36;21.40;99.90
22002;DHT22;11165;51.278;12.398;2022-09-13T10:28:03;21.50;99.90
22002;DHT22;11165;51.278;12.398;2022-09-13T10:30:44;21.70;99.90
22002;DHT22;11165;51.278;12.398;2022-09-13T10:33:26;22.00;99.90
22002;DHT22;11165;51.278;12.398;2022-09-13T10:35:55;22.20;99.90
22002;DHT22;11165;51.278;12.398;2022-09-13T10:38:36;22.40;99.90
22002;DHT22;11165;51.278;12.398;2022-09-13T10:41:10;22.50;99.90
22002;DHT22;11165;51.278;12.398;2022-09-13T10:43:44;22.20;99.90
22002;DHT22;11165;51.278;12.398;2022-09-13T10:46:12;22.10;99.90
22002;DHT22;11165;51.278;12.398;2022-09-13T10:48:47;22.40;99.90
22002;DHT22;11165;51.278;12.398;2022-09-13T10:51:30;22.50;99.90
22002;DHT22;11165;51.278;12.398;2022-09-13T10:54:22;22.40;99.90
22002;DHT22;11165;51.278;12.398;2022-09-13T10:56:51;22.70;99.90
22002;DHT22;11165;51.278;12.398;2022-09-13T10:59:25;22.40;99.90
22002;DHT22;11165;51.278;12.398;2022-09-13T11:02:06;22.40;99.90
22002;DHT22;11165;51.278;12.398;2022-09-13T11:07:35;22.10;99.90
22002;DHT22;11165;51.278;12.398;2022-09-13T11:10:24;22.10;99.90
22002;DHT22;11165;51.278;12.398;2022-09-13T11:30:17;22.40;99.90
22002;DHT22;11165;51.278;12.398;2022-09-13T11:40:52;22.80;99.90
22002;DHT22;11165;51.278;12.398;2022-09-13T11:43:54;22.60;99.90
22002;DHT22;11165;51.278;12.398;2022-09-13T11:49:28;22.70;99.90
22002;DHT22;11165;51.278;12.398;2022-09-13T11:52:06;22.70;99.90
22002;DHT22;11165;51.278;12.398;2022-09-13T11:55:02;22.70;99.90
22002;DHT22;11165;51.278;12.398;2022-09-13T11:57:34;22.80;99.90
22002;DHT22;11165;51.278;12.398;2022-09-13T12:00:08;22.80;99.90
22002;DHT22;11165;51.278;12.398;2022-09-13T12:02:46;22.90;99.90
22002;DHT22;11165;51.278;12.398;2022-09-13T12:05:25;22.80;99.90
22002;DHT22;11165;51.278;12.398;2022-09-13T12:08:16;22.70;99.90
22002;DHT22;11165;51.278;12.398;2022-09-13T12:10:47;22.90;99.90
22002;DHT22;11165;51.278;12.398;2022-09-13T12:13:25;22.90;99.90
22002;DHT22;11165;51.278;12.398;2022-09-13T12:16:01;22.90;99.90
22002;DHT22;11165;51.278;12.398;2022-09-13T12:18:31;22.90;99.90
22002;DHT22;11165;51.278;12.398;2022-09-13T12:21:13;22.90;99.90
22002;DHT22;11165;51.278;12.398;2022-09-13T12:26:25;22.90;99.90
22002;DHT22;11165;51.278;12.398;2022-09-13T12:29:04;22.80;99.90
22002;DHT22;11165;51.278;12.398;2022-09-13T12:31:32;22.80;99.90
22002;DHT22;11165;51.278;12.398;2022-09-13T12:33:58;22.80;99.90
22002;DHT22;11165;51.278;12.398;2022-09-13T12:47:40;22.90;99.90
22002;DHT22;11165;51.278;12.398;2022-09-13T12:51:18;22.90;99.90
22002;DHT22;11165;51.278;12.398;2022-09-13T12:53:40;22.90;99.90
22002;DHT22;11165;51.278;12.398;2022-09-13T12:59:22;22.90;99.90
22002;DHT22;11165;51.278;12.398;2022-09-13T13:01:51;22.80;99.90
22002;DHT22;11165;51.278;12.398;2022-09-13T13:04:26;22.70;99.90
22002;DHT22;11165;51.278;12.398;2022-09-13T13:07:04;22.70;99.90
22002;DHT22;11165;51.278;12.398;2022-09-13T13:09:41;22.60;99.90
22002;DHT22;11165;51.278;12.398;2022-09-13T13:12:38;22.70;99.90
22002;DHT22;11165;51.278;12.398;2022-09-13T13:36:25;23.70;99.90
22002;DHT22;11165;51.278;12.398;2022-09-13T13:38:57;23.90;99.90
22002;DHT22;11165;51.278;12.398;2022-09-13T13:46:50;24.30;99.90
22002;DHT22;11165;51.278;12.398;2022-09-13T13:52:33;24.20;99.90
22002;DHT22;11165;51.278;12.398;2022-09-13T13:57:34;24.20;99.90
22002;DHT22;11165;51.278;12.398;2022-09-13T14:13:42;24.10;99.90
22002;DHT22;11165;51.278;12.398;2022-09-13T14:19:29;24.00;99.90
22002;DHT22;11165;51.278;12.398;2022-09-13T14:24:52;24.00;99.90
22002;DHT22;11165;51.278;12.398;2022-09-13T14:27:25;23.90;99.90
22002;DHT22;11165;51.278;12.398;2022-09-13T14:29:53;23.70;99.90
22002;DHT22;11165;51.278;12.398;2022-09-13T14:32:22;23.60;99.90
22002;DHT22;11165;51.278;12.398;2022-09-13T14:34:58;23.50;99.90
22002;DHT22;11165;51.278;12.398;2022-09-13T14:37:30;23.50;99.90
22002;DHT22;11165;51.278;12.398;2022-09-13T14:39:59;23.40;99.90
22002;DHT22;11165;51.278;12.398;2022-09-13T14:42:25;23.50;99.90
22002;DHT22;11165;51.278;12.398;2022-09-13T14:44:52;23.40;99.90
22002;DHT22;11165;51.278;12.398;2022-09-13T14:47:27;23.50;99.90
22002;DHT22;11165;51.278;12.398;2022-09-13T14:50:06;23.40;99.90
22002;DHT22;11165;51.278;12.398;2022-09-13T14:52:37;23.40;99.90
22002;DHT22;11165;51.278;12.398;2022-09-13T14:55:12;23.30;99.90
22002;DHT22;11165;51.278;12.398;2022-09-13T14:57:42;23.20;99.90
22002;DHT22;11165;51.278;12.398;2022-09-13T15:02:39;23.10;99.90
22002;DHT22;11165;51.278;12.398;2022-09-13T15:05:12;23.10;99.90
22002;DHT22;11165;51.278;12.398;2022-09-13T15:07:40;23.10;99.90
22002;DHT22;11165;51.278;12.398;2022-09-13T15:10:31;23.00;99.90
22002;DHT22;11165;51.278;12.398;2022-09-13T15:21:00;22.80;99.90
22002;DHT22;11165;51.278;12.398;2022-09-13T15:23:40;22.70;99.90
22002;DHT22;11165;51.278;12.398;2022-09-13T15:26:10;22.70;99.90
22002;DHT22;11165;51.278;12.398;2022-09-13T15:31:08;22.60;99.90
22002;DHT22;11165;51.278;12.398;2022-09-13T15:33:34;22.50;99.90
22002;DHT22;11165;51.278;12.398;2022-09-13T15:36:13;22.50;99.90
22002;DHT22;11165;51.278;12.398;2022-09-13T15:38:59;22.50;99.90
22002;DHT22;11165;51.278;12.398;2022-09-13T15:41:38;22.40;99.90
22002;DHT22;11165;51.278;12.398;2022-09-13T15:44:07;22.50;99.90
22002;DHT22;11165;51.278;12.398;2022-09-13T15:46:53;22.60;99.90
22002;DHT22;11165;51.278;12.398;2022-09-13T15:49:21;22.60;99.90
22002;DHT22;11165;51.278;12.398;2022-09-13T15:51:53;22.60;99.90
22002;DHT22;11165;51.278;12.398;2022-09-13T15:54:19;22.50;99.90
22002;DHT22;11165;51.278;12.398;2022-09-13T15:56:48;22.50;99.90
22002;DHT22;11165;51.278;12.398;2022-09-13T15:59:18;22.50;99.90
22002;DHT22;11165;51.278;12.398;2022-09-13T16:01:44;22.40;99.90
22002;DHT22;11165;51.278;12.398;2022-09-13T16:04:12;22.40;99.90
22002;DHT22;11165;51.278;12.398;2022-09-13T16:06:38;22.30;99.90
22002;DHT22;11165;51.278;12.398;2022-09-13T16:09:19;22.30;99.90
22002;DHT22;11165;51.278;12.398;2022-09-13T16:11:46;22.20;99.90
22002;DHT22;11165;51.278;12.398;2022-09-13T16:14:12;22.10;99.90
22002;DHT22;11165;51.278;12.398;2022-09-13T16:16:38;22.10;99.90
22002;DHT22;11165;51.278;12.398;2022-09-13T16:19:04;22.20;99.90
22002;DHT22;11165;51.278;12.398;2022-09-13T16:21:30;22.20;99.90
22002;DHT22;11165;51.278;12.398;2022-09-13T16:23:55;22.20;99.90
22002;DHT22;11165;51.278;12.398;2022-09-13T16:26:21;22.20;99.90
22002;DHT22;11165;51.278;12.398;2022-09-13T16:28:46;22.10;99.90
22002;DHT22;11165;51.278;12.398;2022-09-13T16:31:12;22.10;99.90
22002;DHT22;11165;51.278;12.398;2022-09-13T16:33:41;22.10;99.90
22002;DHT22;11165;51.278;12.398;2022-09-13T16:36:10;22.10;99.90
22002;DHT22;11165;51.278;12.398;2022-09-13T16:38:35;22.00;99.90
22002;DHT22;11165;51.278;12.398;2022-09-13T16:41:04;22.00;99.90
22002;DHT22;11165;51.278;12.398;2022-09-13T16:43:29;21.90;99.90
22002;DHT22;11165;51.278;12.398;2022-09-13T16:45:55;21.90;99.90
22002;DHT22;11165;51.278;12.398;2022-09-13T16:48:20;21.80;99.90
22002;DHT22;11165;51.278;12.398;2022-09-13T16:50:46;21.70;99.90
22002;DHT22;11165;51.278;12.398;2022-09-13T16:53:11;21.70;99.90
22002;DHT22;11165;51.278;12.398;2022-09-13T16:55:37;21.60;99.90
22002;DHT22;11165;51.278;12.398;2022-09-13T16:58:02;21.50;99.90
22002;DHT22;11165;51.278;12.398;2022-09-13T17:00:28;21.50;99.90
22002;DHT22;11165;51.278;12.398;2022-09-13T17:02:55;21.50;99.90
22002;DHT22;11165;51.278;12.398;2022-09-13T17:05:22;21.40;99.90
22002;DHT22;11165;51.278;12.398;2022-09-13T17:07:47;21.30;99.90
22002;DHT22;11165;51.278;12.398;2022-09-13T17:10:13;21.30;99.90
22002;DHT22;11165;51.278;12.398;2022-09-13T17:12:39;21.20;99.90
22002;DHT22;11165;51.278;12.398;2022-09-13T17:15:06;21.20;99.90
22002;DHT22;11165;51.278;12.398;2022-09-13T17:17:31;21.10;99.90
22002;DHT22;11165;51.278;12.398;2022-09-13T17:20:03;21.00;99.90
22002;DHT22;11165;51.278;12.398;2022-09-13T17:22:30;21.00;99.90
22002;DHT22;11165;51.278;12.398;2022-09-13T17:24:55;20.70;99.90
22002;DHT22;11165;51.278;12.398;2022-09-13T17:27:21;20.60;99.90
22002;DHT22;11165;51.278;12.398;2022-09-13T17:29:47;20.70;99.90
22002;DHT22;11165;51.278;12.398;2022-09-13T17:32:12;20.60;99.90
22002;DHT22;11165;51.278;12.398;2022-09-13T17:34:38;20.30;99.90
22002;DHT22;11165;51.278;12.398;2022-09-13T17:37:03;20.10;99.90
22002;DHT22;11165;51.278;12.398;2022-09-13T17:39:31;20.00;99.90
22002;DHT22;11165;51.278;12.398;2022-09-13T17:41:56;19.80;99.90
22002;DHT22;11165;51.278;12.398;2022-09-13T17:44:22;19.70;99.90
22002;DHT22;11165;51.278;12.398;2022-09-13T17:46:48;19.50;99.90
22002;DHT22;11165;51.278;12.398;2022-09-13T17:49:13;19.50;99.90
22002;DHT22;11165;51.278;12.398;2022-09-13T17:51:39;19.30;99.90
22002;DHT22;11165;51.278;12.398;2022-09-13T17:54:06;19.30;99.90
22002;DHT22;11165;51.278;12.398;2022-09-13T17:56:38;19.20;99.90
22002;DHT22;11165;51.278;12.398;2022-09-13T17:59:08;19.20;99.90
22002;DHT22;11165;51.278;12.398;2022-09-13T18:01:35;19.00;99.90
22002;DHT22;11165;51.278;12.398;2022-09-13T18:04:02;18.90;99.90
22002;DHT22;11165;51.278;12.398;2022-09-13T18:06:27;18.80;99.90
22002;DHT22;11165;51.278;12.398;2022-09-13T18:08:53;18.70;99.90
22002;DHT22;11165;51.278;12.398;2022-09-13T18:11:20;18.60;99.90
22002;DHT22;11165;51.278;12.398;2022-09-13T18:13:46;18.50;99.90
22002;DHT22;11165;51.278;12.398;2022-09-13T18:16:21;18.50;99.90
22002;DHT22;11165;51.278;12.398;2022-09-13T18:18:47;18.40;99.90
22002;DHT22;11165;51.278;12.398;2022-09-13T18:21:13;18.30;99.90
22002;DHT22;11165;51.278;12.398;2022-09-13T18:23:40;18.20;99.90
22002;DHT22;11165;51.278;12.398;2022-09-13T18:26:14;18.10;99.90
22002;DHT22;11165;51.278;12.398;2022-09-13T18:28:40;18.10;99.90
22002;DHT22;11165;51.278;12.398;2022-09-13T18:31:09;18.00;99.90
22002;DHT22;11165;51.278;12.398;2022-09-13T18:33:36;18.00;99.90
22002;DHT22;11165;51.278;12.398;2022-09-13T18:36:06;17.90;99.90
22002;DHT22;11165;51.278;12.398;2022-09-13T18:38:36;17.80;99.90
22002;DHT22;11165;51.278;12.398;2022-09-13T18:43:31;17.70;99.90
22002;DHT22;11165;51.278;12.398;2022-09-13T18:45:59;17.70;99.90
22002;DHT22;11165;51.278;12.398;2022-09-13T18:48:28;17.70;99.90
22002;DHT22;11165;51.278;12.398;2022-09-13T18:50:54;17.60;99.90
22002;DHT22;11165;51.278;12.398;2022-09-13T18:53:20;17.60;99.90